• Join FlightAware (Why Join?)
  • Login
  • US Flag 
11:38AM EDT


 

Airport Tracker/Info


-or-


 

Live Flight TrackerFlight Track Log ✈ ERR709 ✈ 15-Jul-2013 ✈ PAFA / FAI - PANC

Flight Track Log - Related Links

Times and Time Zones

All times are in EDT time to prevent confusion due to time zone crossing. See the ERR709 flight status page for this flight to view local times or setup timezone preferences in your user account.

Time Position Orientation Groundspeed Altitude Reporting Facility
EDT Latitude Longitude Course Direction KTS MPH feet Rate Location/Type
02:09AM 64.7667 -148.0000 217° Southwest 140 161 4,700  Level Anchorage Center
02:10AM 64.7500 -148.0833 245° Southwest 160 184 6,200 1,500 Climbing Anchorage Center
02:11AM 64.7167 -148.1500 221° Southwest 170 196 7,800 1,500 Climbing Anchorage Center
02:12AM 64.6667 -148.2000 203° Southwest 170 196 9,300 1,380 Climbing Anchorage Center
02:13AM 64.5697 -148.4000 180° South  Level FlightAware Approximate
02:13AM 64.6167 -148.2333 196° South 180 207 10,700  Level Anchorage Center
02:14AM 64.5276 -148.4933 217° Southwest  Level FlightAware Approximate
02:14AM 64.5667 -148.2500 188° South 180 207 12,100  Level Anchorage Center
02:15AM 64.5333 -148.2833 203° Southwest 180 207 13,500 1,260 Climbing Anchorage Center
02:16AM 64.4833 -148.3167 196° South 190 219 14,700 1,140 Climbing Anchorage Center
02:17AM 64.4167 -148.3333 186° South 200 230 15,800 1,020 Climbing Anchorage Center
02:18AM 64.3667 -148.3667 196° South 200 230 16,800 960 Climbing Anchorage Center
02:19AM 64.3167 -148.4000 196° South 200 230 17,800 840 Climbing Anchorage Center
02:20AM 64.2667 -148.4333 196° South 200 230 18,500 540 Climbing Anchorage Center
02:21AM 64.2167 -148.4667 196° South 200 230 19,000 240 Climbing Anchorage Center
02:22AM 64.1500 -148.5000 192° South 220 253 19,000  Level Anchorage Center
02:23AM 64.0833 -148.5333 192° South 240 276 19,000  Level Anchorage Center
02:24AM 64.0167 -148.5667 192° South 240 276 19,000  Level Anchorage Center
02:25AM 63.9667 -148.6000 196° South 220 253 19,000  Level Anchorage Center
02:26AM 63.9000 -148.6333 192° South 230 265 19,000  Level Anchorage Center
02:27AM 63.8333 -148.6667 192° South 230 265 19,000  Level Anchorage Center
02:28AM 63.7667 -148.7000 192° South 240 276 19,000  Level Anchorage Center
02:29AM 63.7000 -148.7333 192° South 220 253 19,000  Level Anchorage Center
02:30AM 63.6333 -148.7667 193° South 230 265 19,000  Level Anchorage Center
02:31AM 63.5833 -148.8000 197° South 200 230 19,000  Level Anchorage Center
02:32AM 63.5167 -148.8333 193° South 200 230 19,000  Level Anchorage Center
02:33AM 63.4667 -148.8667 197° South 180 207 19,000  Level Anchorage Center
02:34AM 63.4167 -148.8833 188° South 180 207 19,000  Level Anchorage Center
02:35AM 63.3667 -148.9167 197° South 190 219 19,000  Level Anchorage Center
02:36AM 63.3167 -148.9333 189° South 210 242 19,000  Level Anchorage Center
02:37AM 63.2500 -148.9667 193° South 220 253 19,000  Level Anchorage Center
02:38AM 63.2000 -149.0000 197° South 230 265 19,000  Level Anchorage Center
02:39AM 63.1333 -149.0333 193° South 210 242 19,000  Level Anchorage Center
02:40AM 63.0833 -149.0667 197° South 210 242 19,000  Level Anchorage Center
02:41AM 63.0167 -149.1000 193° South 220 253 19,000  Level Anchorage Center
02:42AM 62.9500 -149.1333 193° South 220 253 19,000  Level Anchorage Center
02:43AM 62.9000 -149.1500 189° South 220 253 19,000  Level Anchorage Center
02:44AM 62.8333 -149.1833 193° South 220 253 19,000  Level Anchorage Center
02:45AM 62.7833 -149.2167 197° South 210 242 19,000  Level Anchorage Center
02:46AM 62.7167 -149.2500 193° South 220 253 19,000  Level Anchorage Center
02:47AM 62.6667 -149.2833 197° South 220 253 19,000  Level Anchorage Center
02:48AM 62.6000 -149.3000 187° South 230 265 19,000  Level Anchorage Center
02:50AM 62.4833 -149.3667 195° South 240 276 19,000 1,140 Level Anchorage Center
02:51AM 62.4167 -149.4000 193° South 230 265 22,500 1,080 Climbing Anchorage Center
02:52AM 62.3500 -149.4333 193° South 250 288 21,200 -1,440 Descending Anchorage Center
02:53AM 62.2667 -149.4667 191° South 270 311 19,700 -1,500 Descending Anchorage Center
02:54AM 62.2000 -149.5167 199° South 270 311 18,200 -1,320 Descending Anchorage Center
02:55AM 62.1333 -149.5333 187° South 270 311 17,100 -1,380 Descending Anchorage Center
02:56AM 62.0500 -149.5833 196° South 260 299 15,500 -1,560 Descending Anchorage Center
02:57AM 61.9833 -149.6167 193° South 270 311 14,000 -1,500 Descending Anchorage Center
02:59AM 61.8869 -149.6426 195° South  Level FlightAware Approximate
03:06AM 61.4905 -149.8382 193° South  Level FlightAware Approximate
03:07AM 61.4339 -149.8664 193° South  Level FlightAware Approximate
03:08AM 61.3770 -149.8910 189° South  Level FlightAware Approximate
03:09AM 61.3200 -149.9150 193° South  Level FlightAware Approximate
03:10AM 61.2629 -149.9382 191° South  Level FlightAware Approximate
03:11AM 61.2061 -149.9636 194° South  Level FlightAware Approximate
03:12AM 61.1667 -149.9833 194° South  Level FlightAware Approximate
03:13AM 61.1741 -149.9982 194° South  Level Estimated
03:14AM 61.1741 -149.9982 194° South  Level Estimated
03:15AM 61.1741 -149.9982 194° South  Level Estimated
03:16AM 61.1741 -149.9982 194° South  Level Estimated
03:17AM 61.1741 -149.9982 194° South  Level Estimated
03:18AM 61.1741 -149.9982 194° South  Level Estimated
03:19AM 61.1741 -149.9982 194° South  Level Estimated
03:20AM 61.1741 -149.9982 194° South  Level Estimated
03:21AM 61.1741 -149.9982 194° South  Level Estimated
03:22AM 61.1741 -149.9982 194° South  Level Estimated
03:23AM 61.1741 -149.9982 194° South  Level Estimated
03:24AM 61.1741 -149.9982 194° South  Level Estimated
03:25AM 61.1741 -149.9982 194° South  Level Estimated
03:26AM 61.1741 -149.9982 194° South  Level Estimated
03:27AM 61.1741 -149.9982 194° South  Level Estimated